createdAt,value
2019-02-17T00:00:59.155Z,4.76
2019-02-17T00:01:59.077Z,4.76
2019-02-17T00:02:59.090Z,4.67
2019-02-17T00:03:59.080Z,4.64
2019-02-17T00:04:59.049Z,4.62
2019-02-17T00:05:59.036Z,4.69
2019-02-17T00:06:59.022Z,4.65
2019-02-17T00:07:59.010Z,4.61
2019-02-17T00:08:59.086Z,4.67
2019-02-17T00:09:59.000Z,4.64
2019-02-17T00:10:58.988Z,4.67
2019-02-17T00:11:58.983Z,4.73
2019-02-17T00:12:58.959Z,4.61
2019-02-17T00:13:58.971Z,4.65
2019-02-17T00:14:58.934Z,4.64
2019-02-17T00:15:58.948Z,4.77
2019-02-17T00:16:58.914Z,4.77
2019-02-17T00:17:58.905Z,4.80
2019-02-17T00:18:58.909Z,4.92
2019-02-17T00:19:58.890Z,5.23
2019-02-17T00:20:58.865Z,5.19
2019-02-17T00:21:58.887Z,5.34
2019-02-17T00:22:58.849Z,5.19
2019-02-17T00:23:58.857Z,5.31
2019-02-17T00:24:58.821Z,5.25
2019-02-17T00:25:58.819Z,5.32
2019-02-17T00:26:58.800Z,5.30
2019-02-17T00:27:58.814Z,5.31
2019-02-17T00:28:59.832Z,5.31
2019-02-17T00:29:58.762Z,5.31
2019-02-17T00:30:58.761Z,5.20
2019-02-17T00:31:58.738Z,5.13
2019-02-17T00:32:58.732Z,5.17
2019-02-17T00:33:58.791Z,5.12
2019-02-17T00:34:58.707Z,4.99
2019-02-17T00:35:58.711Z,4.94
2019-02-17T00:36:58.685Z,4.89
2019-02-17T00:37:58.682Z,4.91
2019-02-17T00:38:58.696Z,4.88
2019-02-17T00:39:58.685Z,4.76
2019-02-17T00:40:58.639Z,4.76
2019-02-17T00:41:58.631Z,4.77
2019-02-17T00:42:58.614Z,4.80
2019-02-17T00:43:58.630Z,4.72
2019-02-17T00:44:58.665Z,4.67
2019-02-17T00:45:58.587Z,4.70
2019-02-17T00:46:58.574Z,4.76
2019-02-17T00:47:58.560Z,4.77
2019-02-17T00:48:58.575Z,4.83
2019-02-17T00:49:58.550Z,4.75
2019-02-17T00:50:58.586Z,4.67
2019-02-17T00:51:58.514Z,4.79
2019-02-17T00:52:58.506Z,4.79
2019-02-17T00:53:58.516Z,4.86
2019-02-17T00:54:58.484Z,4.92
2019-02-17T00:55:58.473Z,4.98
2019-02-17T00:56:58.500Z,4.98
2019-02-17T00:57:58.447Z,5.05
2019-02-17T00:58:58.455Z,4.91
2019-02-17T00:59:58.423Z,5.12
2019-02-17T01:00:58.426Z,5.12
2019-02-17T01:01:58.417Z,5.14
2019-02-17T01:02:58.428Z,5.20
2019-02-17T01:03:58.404Z,5.35
2019-02-17T01:04:58.373Z,5.52
2019-02-17T01:05:58.371Z,5.68
2019-02-17T01:06:58.353Z,5.73
2019-02-17T01:07:58.355Z,5.83
2019-02-17T01:08:58.381Z,5.93
2019-02-17T01:09:58.319Z,5.93
2019-02-17T01:10:58.304Z,5.85
2019-02-17T01:11:58.301Z,5.91
2019-02-17T01:12:58.284Z,5.95
2019-02-17T01:13:58.298Z,6.06
2019-02-17T01:14:58.288Z,6.16
2019-02-17T01:15:58.247Z,6.11
2019-02-17T01:16:58.234Z,6.11
2019-02-17T01:17:58.225Z,6.13
2019-02-17T01:18:58.236Z,6.16
2019-02-17T01:19:58.211Z,6.14
2019-02-17T01:20:58.226Z,6.13
2019-02-17T01:21:58.177Z,6.13
2019-02-17T01:22:58.170Z,6.04
2019-02-17T01:23:58.188Z,6.06
2019-02-17T01:24:58.147Z,5.96
2019-02-17T01:25:58.135Z,5.91
2019-02-17T01:26:58.136Z,5.83
2019-02-17T01:27:58.113Z,5.85
2019-02-17T01:28:58.128Z,5.70
2019-02-17T01:29:58.098Z,5.67
2019-02-17T01:30:58.078Z,5.68
2019-02-17T01:31:58.069Z,5.66
2019-02-17T01:32:58.099Z,5.59
2019-02-17T01:33:58.073Z,5.59
2019-02-17T01:34:58.044Z,5.52
2019-02-17T01:35:58.054Z,5.53
2019-02-17T01:36:58.007Z,5.55
2019-02-17T01:37:58.365Z,5.53
2019-02-17T01:38:58.035Z,5.53
2019-02-17T01:39:58.005Z,5.55
2019-02-17T01:40:57.966Z,5.52
2019-02-17T01:41:57.962Z,5.53
2019-02-17T01:42:57.945Z,5.50
2019-02-17T01:43:57.940Z,5.55
2019-02-17T01:45:05.083Z,5.59
2019-02-17T01:46:04.969Z,5.52
2019-02-17T01:46:57.918Z,5.57
2019-02-17T01:47:58.033Z,5.48
2019-02-17T01:49:04.985Z,5.52
2019-02-17T01:50:04.974Z,5.53
2019-02-17T01:50:57.875Z,5.46
2019-02-17T01:52:05.000Z,5.49
2019-02-17T01:52:57.863Z,5.63
2019-02-17T01:53:57.839Z,5.56
2019-02-17T01:54:57.939Z,5.53
2019-02-17T01:55:57.807Z,5.57
2019-02-17T01:56:57.792Z,5.55
2019-02-17T01:57:57.884Z,5.56
2019-02-17T01:58:57.793Z,5.59
2019-02-17T01:59:57.778Z,5.67
2019-02-17T02:00:57.777Z,5.66
2019-02-17T02:01:57.730Z,5.91
2019-02-17T02:02:57.719Z,5.91
2019-02-17T02:03:57.742Z,5.91
2019-02-17T02:04:57.722Z,5.86
2019-02-17T02:05:57.689Z,5.91
2019-02-17T02:06:57.682Z,5.83
2019-02-17T02:07:57.664Z,5.67
2019-02-17T02:08:57.702Z,5.63
2019-02-17T02:09:57.664Z,5.71
2019-02-17T02:10:57.629Z,5.74
2019-02-17T02:11:57.623Z,5.77
2019-02-17T02:12:57.603Z,5.66
2019-02-17T02:13:57.607Z,5.68
2019-02-17T02:14:57.627Z,5.64
2019-02-17T02:15:57.569Z,5.91
2019-02-17T02:16:57.561Z,5.86
2019-02-17T02:17:57.548Z,5.95
2019-02-17T02:18:57.535Z,5.95
2019-02-17T02:19:57.551Z,5.92
2019-02-17T02:20:57.535Z,5.88
2019-02-17T02:21:57.508Z,5.77
2019-02-17T02:22:57.495Z,5.77
2019-02-17T02:23:57.487Z,5.86
2019-02-17T02:24:57.497Z,5.92
2019-02-17T02:25:57.471Z,5.75
2019-02-17T02:26:57.485Z,5.68
2019-02-17T02:27:57.515Z,5.70
2019-02-17T02:28:57.429Z,5.67
2019-02-17T02:29:57.439Z,5.70
2019-02-17T02:30:57.408Z,5.59
2019-02-17T02:31:57.395Z,5.67
2019-02-17T02:32:57.378Z,5.57
2019-02-17T02:33:57.399Z,5.52
2019-02-17T02:34:57.386Z,5.50
2019-02-17T02:35:57.349Z,5.53
2019-02-17T02:36:57.337Z,5.59
2019-02-17T02:37:57.326Z,5.52
2019-02-17T02:38:57.318Z,5.50
2019-02-17T02:39:57.364Z,5.53
2019-02-17T02:40:57.296Z,5.68
2019-02-17T02:41:57.291Z,5.56
2019-02-17T02:42:57.273Z,5.59
2019-02-17T02:43:57.263Z,5.60
2019-02-17T02:44:57.279Z,5.56
2019-02-17T02:45:57.276Z,5.52
2019-02-17T02:46:57.228Z,5.53
2019-02-17T02:47:57.223Z,5.60
2019-02-17T02:48:57.217Z,5.60
2019-02-17T02:49:57.222Z,5.67
2019-02-17T02:50:57.189Z,5.60
2019-02-17T02:51:57.175Z,5.60
2019-02-17T02:52:57.170Z,5.57
2019-02-17T02:53:57.146Z,5.64
2019-02-17T02:54:57.170Z,5.74
2019-02-17T02:55:57.133Z,5.78
2019-02-17T02:56:57.113Z,5.78
2019-02-17T02:57:57.110Z,5.74
2019-02-17T02:58:57.103Z,5.85
2019-02-17T02:59:57.114Z,5.73
2019-02-17T03:00:57.104Z,5.74
2019-02-17T03:01:57.057Z,5.78
2019-02-17T03:02:57.056Z,5.74
2019-02-17T03:03:57.041Z,5.70
2019-02-17T03:04:57.051Z,5.64
2019-02-17T03:05:57.013Z,5.67
2019-02-17T03:06:57.047Z,5.64
2019-02-17T03:07:56.993Z,5.63
2019-02-17T03:08:56.978Z,5.53
2019-02-17T03:09:56.997Z,5.50
2019-02-17T03:10:56.971Z,5.59
2019-02-17T03:11:56.950Z,5.59
2019-02-17T03:12:56.933Z,5.55
2019-02-17T03:13:56.946Z,5.52
2019-02-17T03:14:56.939Z,5.52
2019-02-17T03:15:56.903Z,5.63
2019-02-17T03:16:56.894Z,5.63
2019-02-17T03:17:56.883Z,5.64
2019-02-17T03:18:56.897Z,5.70
2019-02-17T03:19:56.876Z,5.55
2019-02-17T03:20:56.930Z,5.59
2019-02-17T03:21:56.846Z,5.50
2019-02-17T03:22:56.825Z,5.50
2019-02-17T03:23:56.818Z,5.45
2019-02-17T03:24:56.803Z,5.53
2019-02-17T03:25:56.849Z,5.50
2019-02-17T03:26:56.781Z,5.48
2019-02-17T03:27:56.776Z,5.52
2019-02-17T03:28:56.761Z,5.49
2019-02-17T03:30:05.173Z,5.37
2019-02-17T03:30:57.779Z,5.37
2019-02-17T03:31:56.754Z,5.40
2019-02-17T03:32:56.719Z,5.40
2019-02-17T03:33:56.705Z,5.38
2019-02-17T03:34:56.696Z,5.43
2019-02-17T03:35:56.705Z,5.41
2019-02-17T03:36:56.671Z,5.41
2019-02-17T03:37:56.693Z,5.34
2019-02-17T03:38:56.657Z,5.40
2019-02-17T03:39:56.640Z,5.37
2019-02-17T03:40:56.656Z,5.52
2019-02-17T03:41:56.610Z,5.52
2019-02-17T03:42:56.600Z,5.43
2019-02-17T03:43:56.593Z,5.45
2019-02-17T03:44:56.631Z,5.56
2019-02-17T03:45:56.597Z,5.56
2019-02-17T03:46:56.557Z,5.59
2019-02-17T03:47:56.545Z,5.82
2019-02-17T03:48:56.539Z,5.75
2019-02-17T03:49:56.525Z,5.70
2019-02-17T03:50:56.572Z,5.68
2019-02-17T03:51:56.500Z,5.68
2019-02-17T03:52:56.489Z,5.77
2019-02-17T03:53:56.485Z,5.68
2019-02-17T03:54:56.482Z,5.73
2019-02-17T03:55:56.493Z,5.71
2019-02-17T03:56:56.498Z,5.56
2019-02-17T03:57:56.442Z,5.67
2019-02-17T03:58:56.430Z,5.74
2019-02-17T03:59:56.418Z,5.74
2019-02-17T04:00:56.426Z,5.63
2019-02-17T04:01:56.390Z,5.50
2019-02-17T04:02:56.406Z,5.49
2019-02-17T04:03:56.380Z,5.43
2019-02-17T04:04:56.365Z,5.35
2019-02-17T04:05:56.384Z,5.41
2019-02-17T04:06:56.337Z,5.46
2019-02-17T04:07:56.333Z,5.55
2019-02-17T04:08:56.337Z,5.55
2019-02-17T04:09:56.299Z,5.67
2019-02-17T04:10:56.317Z,5.70
2019-02-17T04:11:56.278Z,5.68
2019-02-17T04:12:56.263Z,5.66
2019-02-17T04:13:56.255Z,5.59
2019-02-17T04:14:56.287Z,5.59
2019-02-17T04:15:56.258Z,5.60
2019-02-17T04:16:56.223Z,5.64
2019-02-17T04:17:56.222Z,5.73
2019-02-17T04:18:56.200Z,5.81
2019-02-17T04:19:56.190Z,5.96
2019-02-17T04:20:56.239Z,6.06
2019-02-17T04:21:56.161Z,5.91
2019-02-17T04:22:56.154Z,5.88
2019-02-17T04:23:56.152Z,5.88
2019-02-17T04:24:56.137Z,5.96
2019-02-17T04:25:56.161Z,6.00
2019-02-17T04:26:56.119Z,5.89
2019-02-17T04:27:56.140Z,5.74
2019-02-17T04:28:56.087Z,5.70
2019-02-17T04:29:56.077Z,5.73
2019-02-17T04:30:56.822Z,5.74
2019-02-17T04:31:56.067Z,5.70
2019-02-17T04:32:56.042Z,5.57
2019-02-17T04:33:56.048Z,5.63
2019-02-17T04:34:56.018Z,5.57
2019-02-17T04:35:56.027Z,5.50
2019-02-17T04:36:56.000Z,5.60
2019-02-17T04:37:55.993Z,5.66
2019-02-17T04:38:55.972Z,5.68
2019-02-17T04:39:56.013Z,5.73
2019-02-17T04:40:55.974Z,5.73
2019-02-17T04:41:55.939Z,5.66
2019-02-17T04:42:55.931Z,5.56
2019-02-17T04:43:55.920Z,5.57
2019-02-17T04:44:55.911Z,5.48
2019-02-17T04:45:55.959Z,5.41
2019-02-17T04:46:55.888Z,5.43
2019-02-17T04:47:55.873Z,5.34
2019-02-17T04:48:55.858Z,5.31
2019-02-17T04:49:55.849Z,5.27
2019-02-17T04:50:55.865Z,5.13
2019-02-17T04:51:55.845Z,5.28
2019-02-17T04:52:55.823Z,5.23
2019-02-17T04:53:55.813Z,5.37
2019-02-17T04:54:55.795Z,5.48
2019-02-17T04:55:55.806Z,5.49
2019-02-17T04:56:55.774Z,5.52
2019-02-17T04:57:55.805Z,5.45
2019-02-17T04:58:55.772Z,5.49
2019-02-17T04:59:55.742Z,5.66
2019-02-17T05:00:55.730Z,5.66
2019-02-17T05:01:55.740Z,5.66
2019-02-17T05:02:55.715Z,5.81
2019-02-17T05:03:55.692Z,5.86
2019-02-17T05:04:55.685Z,5.86
2019-02-17T05:05:55.780Z,5.89
2019-02-17T05:06:55.689Z,5.86
2019-02-17T05:07:55.649Z,5.91
2019-02-17T05:08:55.638Z,5.83
2019-02-17T05:09:55.630Z,5.89
2019-02-17T05:10:55.627Z,5.73
2019-02-17T05:11:55.668Z,5.52
2019-02-17T05:12:55.601Z,5.32
2019-02-17T05:13:55.581Z,5.20
2019-02-17T05:14:55.576Z,5.17
2019-02-17T05:15:55.568Z,5.32
2019-02-17T05:16:55.571Z,5.28
2019-02-17T05:17:55.568Z,5.30
2019-02-17T05:18:55.524Z,5.27
2019-02-17T05:19:55.514Z,5.13
2019-02-17T05:20:55.511Z,5.12
2019-02-17T05:21:55.531Z,4.98
2019-02-17T05:22:55.483Z,4.84
2019-02-17T05:23:55.505Z,4.88
2019-02-17T05:24:55.457Z,4.64
2019-02-17T05:25:55.449Z,4.51
2019-02-17T05:26:55.471Z,4.32
2019-02-17T05:27:55.425Z,4.19
2019-02-17T05:28:56.621Z,3.94
2019-02-17T05:29:55.425Z,3.97
2019-02-17T05:30:55.405Z,3.72
2019-02-17T05:31:55.426Z,3.57
2019-02-17T05:32:55.378Z,3.57
2019-02-17T05:33:55.362Z,3.62
2019-02-17T05:34:55.350Z,3.53
2019-02-17T05:35:55.356Z,3.43
2019-02-17T05:36:55.405Z,3.25
2019-02-17T05:37:55.326Z,3.25
2019-02-17T05:39:01.821Z,3.09
2019-02-17T05:39:55.297Z,3.15
2019-02-17T05:40:55.284Z,3.16
2019-02-17T05:41:55.293Z,3.23
2019-02-17T05:42:55.302Z,3.43
2019-02-17T05:43:55.267Z,3.52
2019-02-17T05:44:55.253Z,3.46
2019-02-17T05:45:55.232Z,3.43
2019-02-17T05:46:55.246Z,3.53
2019-02-17T05:47:55.215Z,3.70
2019-02-17T05:48:55.248Z,3.54
2019-02-17T05:49:55.189Z,3.53
2019-02-17T05:50:55.180Z,3.57
2019-02-17T05:51:55.194Z,3.70
2019-02-17T05:52:55.155Z,3.62
2019-02-17T05:53:55.142Z,3.70
2019-02-17T05:54:55.171Z,3.71
2019-02-17T05:55:55.126Z,3.76
2019-02-17T05:56:55.132Z,3.54
2019-02-17T05:57:55.104Z,3.53
2019-02-17T05:58:55.095Z,3.60
2019-02-17T05:59:55.080Z,3.78
2019-02-17T06:01:03.262Z,3.96
2019-02-17T06:01:56.082Z,4.06
2019-02-17T06:02:55.048Z,4.03
2019-02-17T06:03:55.035Z,3.97
2019-02-17T06:04:55.026Z,3.76
2019-02-17T06:05:55.030Z,3.78
2019-02-17T06:06:55.077Z,3.97
2019-02-17T06:07:54.993Z,4.22
2019-02-17T06:08:54.989Z,4.04
2019-02-17T06:09:54.977Z,4.25
2019-02-17T06:10:54.958Z,4.22
2019-02-17T06:11:55.027Z,4.25
2019-02-17T06:12:54.983Z,4.24
2019-02-17T06:13:54.932Z,4.26
2019-02-17T06:14:54.924Z,4.12
2019-02-17T06:15:54.904Z,3.80
2019-02-17T06:16:54.914Z,3.67
2019-02-17T06:17:54.960Z,3.83
2019-02-17T06:18:54.873Z,3.98
2019-02-17T06:19:54.891Z,3.98
2019-02-17T06:20:54.848Z,3.80
2019-02-17T06:21:54.864Z,3.65
2019-02-17T06:22:54.830Z,3.83
2019-02-17T06:23:54.823Z,3.75
2019-02-17T06:24:54.812Z,3.57
2019-02-17T06:25:54.810Z,3.75
2019-02-17T06:26:54.817Z,3.67
2019-02-17T06:27:54.771Z,3.62
2019-02-17T06:28:54.764Z,3.54
2019-02-17T06:29:54.760Z,3.50
2019-02-17T06:30:54.739Z,3.58
2019-02-17T06:31:54.794Z,3.54
2019-02-17T06:32:54.717Z,3.54
2019-02-17T06:33:54.715Z,3.54
2019-02-17T06:34:54.703Z,3.60
2019-02-17T06:35:54.691Z,3.79
2019-02-17T06:36:54.712Z,3.92
2019-02-17T06:37:54.667Z,3.75
2019-02-17T06:38:54.691Z,3.64
2019-02-17T06:39:54.643Z,3.68
2019-02-17T06:40:54.662Z,3.44
2019-02-17T06:41:54.630Z,3.18
2019-02-17T06:42:54.636Z,3.13
2019-02-17T06:43:54.600Z,3.09
2019-02-17T06:44:54.599Z,3.07
2019-02-17T06:45:54.622Z,3.25
2019-02-17T06:46:54.579Z,3.25
2019-02-17T06:47:54.583Z,3.40
2019-02-17T06:48:54.548Z,3.39
2019-02-17T06:49:54.533Z,3.33
2019-02-17T06:50:54.525Z,3.34
2019-02-17T06:51:54.561Z,3.21
2019-02-17T06:52:54.525Z,3.42
2019-02-17T06:53:54.497Z,3.60
2019-02-17T06:54:54.479Z,3.58
2019-02-17T06:55:54.469Z,3.57
2019-02-17T06:56:54.465Z,3.64
2019-02-17T06:57:54.521Z,3.76
2019-02-17T06:58:54.434Z,3.70
2019-02-17T06:59:54.425Z,3.64
2019-02-17T07:00:54.410Z,3.65
2019-02-17T07:01:54.400Z,3.97
2019-02-17T07:02:54.413Z,4.25
2019-02-17T07:03:54.411Z,4.24
2019-02-17T07:04:54.390Z,4.39
2019-02-17T07:05:56.631Z,4.79
2019-02-17T07:06:54.380Z,4.92
2019-02-17T07:07:54.365Z,5.10
2019-02-17T07:08:54.330Z,5.17
2019-02-17T07:09:54.336Z,5.31
2019-02-17T07:10:54.308Z,5.45
2019-02-17T07:11:56.792Z,5.48
2019-02-17T07:12:54.309Z,5.35
2019-02-17T07:13:54.270Z,5.57
2019-02-17T07:14:54.259Z,5.53
2019-02-17T07:15:54.271Z,5.59
2019-02-17T07:16:54.236Z,5.59
2019-02-17T07:17:54.250Z,5.60
2019-02-17T07:18:54.223Z,5.63
2019-02-17T07:19:54.211Z,5.63
2019-02-17T07:20:54.199Z,5.53
2019-02-17T07:21:54.219Z,5.57
2019-02-17T07:22:54.196Z,5.59
2019-02-17T07:23:54.159Z,5.53
2019-02-17T07:24:54.160Z,5.56
2019-02-17T07:25:54.148Z,5.60
2019-02-17T07:26:54.126Z,5.55
2019-02-17T07:27:54.190Z,5.52
2019-02-17T07:28:54.107Z,5.56
2019-02-17T07:29:54.095Z,5.73
2019-02-17T07:30:54.087Z,5.81
2019-02-17T07:31:54.078Z,5.82
2019-02-17T07:33:01.185Z,5.93
2019-02-17T07:33:54.098Z,5.92
2019-02-17T07:34:54.048Z,6.01
2019-02-17T07:35:54.043Z,6.11
2019-02-17T07:37:01.101Z,6.18
2019-02-17T07:38:01.132Z,6.19
2019-02-17T07:39:01.945Z,6.16
2019-02-17T07:40:01.056Z,6.09
2019-02-17T07:41:01.038Z,6.04
2019-02-17T07:41:53.967Z,6.00
2019-02-17T07:42:54.018Z,6.09
2019-02-17T07:43:53.968Z,6.07
2019-02-17T07:44:53.942Z,6.13
2019-02-17T07:45:54.032Z,6.18
2019-02-17T07:46:53.942Z,6.18
2019-02-17T07:47:53.957Z,6.33
2019-02-17T07:48:53.893Z,6.33
2019-02-17T07:49:53.922Z,6.30
2019-02-17T07:50:53.894Z,6.33
2019-02-17T07:51:53.864Z,6.30
2019-02-17T07:52:53.876Z,6.36
2019-02-17T07:53:53.888Z,6.43
2019-02-17T07:54:53.947Z,6.35
2019-02-17T07:55:53.846Z,6.36
2019-02-17T07:56:53.793Z,6.32
2019-02-17T07:57:53.859Z,6.36
2019-02-17T07:58:53.773Z,6.46
2019-02-17T07:59:53.759Z,6.43
2019-02-17T08:00:53.794Z,6.54
2019-02-17T08:01:53.742Z,6.63
2019-02-17T08:02:53.757Z,6.65
2019-02-17T08:03:53.715Z,6.65
2019-02-17T08:04:53.707Z,6.73
2019-02-17T08:05:53.722Z,6.71
2019-02-17T08:06:53.684Z,6.79
2019-02-17T08:07:53.707Z,6.83
2019-02-17T08:08:53.667Z,6.97
2019-02-17T08:09:53.650Z,7.01
2019-02-17T08:11:03.485Z,6.99
2019-02-17T08:11:54.625Z,7.13
2019-02-17T08:12:53.678Z,7.09
2019-02-17T08:13:53.605Z,7.22
2019-02-17T08:14:53.591Z,7.20
2019-02-17T08:15:53.585Z,7.19
2019-02-17T08:16:53.568Z,7.29
2019-02-17T08:17:53.588Z,7.44
2019-02-17T08:18:53.586Z,7.37
2019-02-17T08:19:53.538Z,7.41
2019-02-17T08:20:53.530Z,7.41
2019-02-17T08:21:53.515Z,7.56
2019-02-17T08:22:53.541Z,7.53
2019-02-17T08:23:55.069Z,7.67
2019-02-17T08:24:53.508Z,7.63
2019-02-17T08:25:53.481Z,7.87
2019-02-17T08:26:53.463Z,7.99
2019-02-17T08:27:53.446Z,8.02
2019-02-17T08:28:53.470Z,8.02
2019-02-17T08:29:53.425Z,8.15
2019-02-17T08:30:53.433Z,8.17
2019-02-17T08:31:56.142Z,8.20
2019-02-17T08:32:53.396Z,8.21
2019-02-17T08:33:53.403Z,8.30
2019-02-17T08:34:53.373Z,8.48
2019-02-17T08:35:53.356Z,8.40
2019-02-17T08:36:53.399Z,8.51
2019-02-17T08:37:53.340Z,8.53
2019-02-17T08:38:53.350Z,8.57
2019-02-17T08:39:53.320Z,8.60
2019-02-17T08:40:53.312Z,8.63
2019-02-17T08:41:53.291Z,8.65
2019-02-17T08:42:53.308Z,8.71
2019-02-17T08:43:53.300Z,8.81
2019-02-17T08:44:53.267Z,8.84
2019-02-17T08:45:53.244Z,8.96
2019-02-17T08:46:53.235Z,9.15
2019-02-17T08:47:53.224Z,9.10
2019-02-17T08:48:53.278Z,9.23
2019-02-17T08:49:53.237Z,9.28
2019-02-17T08:50:53.198Z,9.25
2019-02-17T08:51:53.183Z,9.25
2019-02-17T08:52:53.173Z,9.42
2019-02-17T08:53:53.183Z,9.45
2019-02-17T08:54:53.177Z,9.52
2019-02-17T08:55:53.137Z,9.68
2019-02-17T08:56:53.133Z,9.76
2019-02-17T08:57:53.114Z,9.79
2019-02-17T08:58:53.130Z,9.81
2019-02-17T08:59:53.095Z,9.81
2019-02-17T09:00:53.105Z,9.89
2019-02-17T09:01:53.082Z,9.93
2019-02-17T09:02:53.077Z,9.94
2019-02-17T09:03:53.088Z,10.01
2019-02-17T09:04:53.044Z,10.03
2019-02-17T09:05:53.025Z,10.04
2019-02-17T09:06:53.020Z,10.01
2019-02-17T09:07:53.006Z,10.03
2019-02-17T09:08:56.080Z,10.03
2019-02-17T09:09:52.978Z,10.09
2019-02-17T09:10:52.974Z,10.09
2019-02-17T09:11:52.955Z,10.15
2019-02-17T09:12:52.954Z,10.17
2019-02-17T09:13:52.964Z,10.30
2019-02-17T09:14:52.976Z,10.32
2019-02-17T09:15:52.977Z,10.39
2019-02-17T09:16:52.904Z,10.34
2019-02-17T09:17:52.893Z,10.42
2019-02-17T09:18:52.900Z,10.32
2019-02-17T09:19:52.867Z,10.30
2019-02-17T09:20:52.904Z,10.30
2019-02-17T09:21:52.845Z,10.32
2019-02-17T09:22:52.842Z,10.34
2019-02-17T09:23:53.555Z,10.33
2019-02-17T09:24:52.813Z,10.28
2019-02-17T09:25:52.815Z,10.26
2019-02-17T09:26:52.829Z,10.30
2019-02-17T09:27:52.783Z,10.24
2019-02-17T09:28:52.802Z,10.25
2019-02-17T09:29:52.764Z,10.32
2019-02-17T09:30:52.748Z,10.33
2019-02-17T09:31:52.746Z,10.47
2019-02-17T09:32:52.755Z,10.55
2019-02-17T09:33:52.743Z,10.53
2019-02-17T09:34:52.710Z,10.56
2019-02-17T09:35:52.688Z,10.60
2019-02-17T09:36:52.678Z,10.58
2019-02-17T09:37:52.673Z,10.53
2019-02-17T09:38:53.592Z,10.62
2019-02-17T09:39:52.659Z,10.55
2019-02-17T09:40:52.636Z,10.66
2019-02-17T09:41:52.632Z,10.59
2019-02-17T09:42:52.613Z,10.65
2019-02-17T09:43:52.630Z,10.73
2019-02-17T09:44:52.592Z,10.62
2019-02-17T09:45:52.613Z,10.89
2019-02-17T09:46:52.568Z,10.84
2019-02-17T09:47:52.555Z,10.86
2019-02-17T09:48:52.577Z,10.89
2019-02-17T09:49:52.542Z,11.09
2019-02-17T09:50:52.537Z,11.03
2019-02-17T09:51:52.513Z,11.07
2019-02-17T09:52:52.508Z,11.03
2019-02-17T09:53:52.554Z,11.07
2019-02-17T09:54:52.489Z,11.11
2019-02-17T09:55:52.480Z,11.25
2019-02-17T09:56:52.468Z,11.31
2019-02-17T09:57:52.443Z,11.25
2019-02-17T09:58:52.458Z,11.27
2019-02-17T09:59:52.451Z,11.29
2019-02-17T10:00:52.429Z,11.35
2019-02-17T10:01:52.406Z,11.43
2019-02-17T10:02:52.393Z,11.44
2019-02-17T10:03:52.392Z,11.41
2019-02-17T10:04:52.394Z,11.43
2019-02-17T10:05:52.356Z,11.43
2019-02-17T10:06:52.396Z,11.49
2019-02-17T10:07:52.344Z,11.54
2019-02-17T10:08:52.322Z,11.53
2019-02-17T10:09:52.337Z,11.54
2019-02-17T10:10:52.302Z,11.65
2019-02-17T10:11:52.292Z,11.67
2019-02-17T10:12:52.319Z,11.71
2019-02-17T10:13:52.267Z,11.75
2019-02-17T10:14:52.281Z,11.78
2019-02-17T10:15:52.249Z,11.86
2019-02-17T10:16:52.228Z,11.83
2019-02-17T10:17:52.222Z,11.75
2019-02-17T10:18:52.278Z,11.77
2019-02-17T10:19:52.240Z,11.85
2019-02-17T10:20:52.187Z,11.85
2019-02-17T10:21:52.180Z,11.83
2019-02-17T10:22:52.165Z,11.87
2019-02-17T10:23:52.158Z,11.87
2019-02-17T10:24:52.225Z,11.87
2019-02-17T10:25:52.134Z,12.01
2019-02-17T10:26:52.127Z,12.05
2019-02-17T10:27:52.109Z,12.08
2019-02-17T10:28:52.111Z,12.05
2019-02-17T10:29:52.115Z,11.97
2019-02-17T10:30:52.131Z,12.05
2019-02-17T10:31:52.066Z,12.01
2019-02-17T10:32:52.069Z,12.04
2019-02-17T10:33:52.044Z,11.99
2019-02-17T10:34:52.055Z,11.99
2019-02-17T10:35:52.021Z,12.08
2019-02-17T10:36:52.047Z,12.11
2019-02-17T10:37:52.003Z,12.26
2019-02-17T10:38:51.997Z,12.29
2019-02-17T10:39:51.999Z,12.31
2019-02-17T10:40:51.974Z,12.33
2019-02-17T10:41:51.966Z,12.29
2019-02-17T10:42:51.970Z,12.33
2019-02-17T10:43:51.939Z,12.31
2019-02-17T10:44:51.944Z,12.46
2019-02-17T10:45:51.909Z,12.44
2019-02-17T10:46:51.906Z,12.34
2019-02-17T10:47:51.920Z,12.30
2019-02-17T10:48:51.878Z,12.38
2019-02-17T10:49:51.895Z,12.34
2019-02-17T10:50:51.860Z,12.42
2019-02-17T10:51:51.842Z,12.44
2019-02-17T10:52:51.831Z,12.46
2019-02-17T10:53:51.821Z,12.56
2019-02-17T10:54:51.855Z,12.57
2019-02-17T10:55:51.802Z,12.54
2019-02-17T10:56:51.790Z,12.56
2019-02-17T10:57:51.776Z,12.60
2019-02-17T10:58:51.773Z,12.66
2019-02-17T10:59:51.776Z,12.62
2019-02-17T11:00:51.766Z,12.60
2019-02-17T11:01:51.732Z,12.62
2019-02-17T11:02:51.734Z,12.70
2019-02-17T11:03:51.714Z,12.64
2019-02-17T11:04:51.722Z,12.70
2019-02-17T11:05:51.686Z,12.79
2019-02-17T11:06:51.682Z,12.74
2019-02-17T11:07:51.665Z,12.78
2019-02-17T11:08:51.675Z,12.88
2019-02-17T11:09:51.674Z,12.93
2019-02-17T11:10:51.635Z,13.03
2019-02-17T11:11:51.625Z,12.99
2019-02-17T11:12:51.613Z,13.03
2019-02-17T11:13:51.597Z,13.07
2019-02-17T11:14:51.656Z,13.04
2019-02-17T11:15:51.578Z,13.02
2019-02-17T11:16:51.568Z,13.11
2019-02-17T11:17:51.564Z,13.15
2019-02-17T11:18:52.018Z,13.18
2019-02-17T11:19:51.560Z,13.15
2019-02-17T11:20:51.555Z,13.18
2019-02-17T11:21:51.505Z,13.17
2019-02-17T11:22:51.522Z,13.29
2019-02-17T11:23:51.496Z,13.37
2019-02-17T11:24:51.506Z,13.41
2019-02-17T11:25:51.465Z,13.37
2019-02-17T11:26:51.457Z,13.32
2019-02-17T11:27:51.440Z,13.37
2019-02-17T11:28:51.466Z,13.37
2019-02-17T11:29:51.438Z,13.40
2019-02-17T11:30:51.407Z,13.41
2019-02-17T11:31:51.401Z,13.37
2019-02-17T11:32:58.012Z,13.38
2019-02-17T11:33:52.377Z,13.44
2019-02-17T11:34:51.408Z,13.49
2019-02-17T11:35:51.358Z,13.52
2019-02-17T11:36:51.344Z,13.62
2019-02-17T11:37:51.334Z,13.71
2019-02-17T11:38:51.319Z,13.73
2019-02-17T11:39:51.330Z,13.73
2019-02-17T11:40:51.343Z,13.61
2019-02-17T11:41:51.293Z,13.69
2019-02-17T11:42:51.276Z,13.71
2019-02-17T11:43:51.262Z,13.69
2019-02-17T11:44:51.276Z,13.76
2019-02-17T11:45:51.240Z,13.77
2019-02-17T11:46:51.277Z,13.76
2019-02-17T11:47:51.248Z,13.69
2019-02-17T11:48:51.202Z,13.80
2019-02-17T11:49:51.193Z,13.76
2019-02-17T11:50:51.223Z,13.81
2019-02-17T11:51:51.172Z,13.84
2019-02-17T11:52:51.188Z,13.89
2019-02-17T11:53:51.152Z,13.95
2019-02-17T11:54:51.139Z,13.92
2019-02-17T11:55:51.156Z,13.96
2019-02-17T11:56:51.122Z,13.94
2019-02-17T11:57:51.109Z,14.02
2019-02-17T11:58:51.099Z,13.99
2019-02-17T11:59:51.173Z,14.07
2019-02-17T12:00:51.099Z,14.14
2019-02-17T12:01:51.060Z,14.17
2019-02-17T12:02:51.050Z,14.24
2019-02-17T12:03:51.035Z,14.19
2019-02-17T12:04:51.030Z,14.25
2019-02-17T12:05:51.079Z,14.25
2019-02-17T12:06:51.009Z,14.27
2019-02-17T12:07:51.008Z,14.35
2019-02-17T12:08:50.984Z,14.37
2019-02-17T12:09:50.971Z,14.39
2019-02-17T12:10:50.994Z,14.50
2019-02-17T12:11:50.949Z,14.46
2019-02-17T12:12:50.992Z,14.56
2019-02-17T12:13:50.926Z,14.64
2019-02-17T12:14:50.921Z,14.67
2019-02-17T12:15:50.928Z,14.64
2019-02-17T12:16:50.900Z,14.53
2019-02-17T12:17:50.889Z,14.62
2019-02-17T12:18:50.900Z,14.56
2019-02-17T12:19:50.856Z,14.61
2019-02-17T12:20:50.887Z,14.64
2019-02-17T12:21:50.835Z,14.72
2019-02-17T12:22:50.831Z,14.62
2019-02-17T12:23:50.819Z,14.50
2019-02-17T12:24:50.831Z,14.50
2019-02-17T12:25:50.836Z,14.62
2019-02-17T12:26:50.790Z,14.68
2019-02-17T12:27:50.776Z,14.67
2019-02-17T12:28:50.760Z,14.84
2019-02-17T12:29:50.757Z,14.88
2019-02-17T12:30:50.759Z,14.87
2019-02-17T12:31:50.755Z,14.94
2019-02-17T12:32:50.710Z,15.06
2019-02-17T12:33:50.725Z,15.03
2019-02-17T12:34:50.696Z,14.99
2019-02-17T12:35:50.704Z,15.09
2019-02-17T12:36:50.670Z,14.90
2019-02-17T12:37:50.660Z,14.84
2019-02-17T12:38:50.729Z,14.84
2019-02-17T12:39:50.640Z,14.91
2019-02-17T12:40:50.652Z,14.94
2019-02-17T12:41:50.623Z,15.02
2019-02-17T12:42:51.191Z,15.03
2019-02-17T12:43:50.613Z,15.08
2019-02-17T12:44:50.620Z,15.09
2019-02-17T12:45:50.594Z,15.13
2019-02-17T12:46:50.559Z,15.06
2019-02-17T12:47:57.538Z,15.09
2019-02-17T12:48:51.541Z,15.06
2019-02-17T12:49:50.527Z,15.02
2019-02-17T12:50:50.618Z,15.08
2019-02-17T12:51:50.509Z,15.01
2019-02-17T12:52:50.498Z,15.02
2019-02-17T12:53:50.488Z,15.06
2019-02-17T12:54:50.477Z,15.11
2019-02-17T12:55:50.485Z,15.11
2019-02-17T12:56:57.634Z,15.27
2019-02-17T12:57:57.505Z,15.27
2019-02-17T13:00:00.225Z,15.38
2019-02-17T13:01:07.247Z,15.33
2019-02-17T13:02:00.176Z,15.43
2019-02-17T13:03:00.115Z,15.41
2019-02-17T13:04:00.197Z,15.46
2019-02-17T13:05:00.214Z,15.38
2019-02-17T13:06:00.099Z,15.42
2019-02-17T13:07:00.068Z,15.51
2019-02-17T13:08:00.098Z,15.54
2019-02-17T13:09:00.048Z,15.45
2019-02-17T13:10:00.036Z,15.48
2019-02-17T13:11:00.079Z,15.51
2019-02-17T13:12:00.014Z,15.49